Arlington, Kansas
Current Conditions -  °F | °C
As of 8:52 PM on Friday 24 Oct 2014 (Local Time) from KHUT Reporting Station
Clear Clear  
Wind Chill: 66°   Ceiling: Unl
Heat Index: 66°   Visibility: 10mi
Dew Point: 59°   Wind: 7mph
Humidity: 78%   Direction: 190°S
Pressure: 30.01"   Gusts: NA
Location:  37.9°N, 98.18°W
Report Text: KHUT 250152Z 19006KT 10SM CLR 19/15 A3001 RMK AO2 SLP148 T01890150
Loading
Personal Weather Stations






























Interactive Weather Map
Tropical Storm Tracking
New forecast layout! Learn more

10-Day Weather Forecast

Advertisements
Track Severe Weather on mobile